createdAt,value
2022-12-20T00:01:23.225Z,75.52
2022-12-20T00:04:26.129Z,75.12
2022-12-20T00:07:28.963Z,74.71
2022-12-20T00:10:31.761Z,74.83
2022-12-20T00:13:35.099Z,74.98
2022-12-20T00:16:38.048Z,74.96
2022-12-20T00:19:41.111Z,74.94
2022-12-20T00:22:43.880Z,74.29
2022-12-20T00:25:46.597Z,74.18
2022-12-20T00:28:49.412Z,74.34
2022-12-20T00:31:52.315Z,73.31
2022-12-20T00:34:55.137Z,73.47
2022-12-20T00:37:57.962Z,73.77
2022-12-20T00:41:15.829Z,73.55
2022-12-20T00:44:18.613Z,73.71
2022-12-20T00:47:21.561Z,73.45
2022-12-20T00:50:24.543Z,73.47
2022-12-20T00:53:28.218Z,73.15
2022-12-20T00:56:31.296Z,72.46
2022-12-20T00:59:34.314Z,72.78
2022-12-20T01:02:37.207Z,72.67
2022-12-20T01:05:53.486Z,72.73
2022-12-20T01:08:57.372Z,72.65
2022-12-20T01:12:00.101Z,72.75
2022-12-20T01:15:04.495Z,73.04
2022-12-20T01:18:07.283Z,73.22
2022-12-20T01:21:12.958Z,73.20
2022-12-20T01:24:18.954Z,73.26
2022-12-20T01:27:21.830Z,73.22
2022-12-20T01:30:24.642Z,72.98
2022-12-20T01:33:28.046Z,73.17
2022-12-20T01:36:34.475Z,73.46
2022-12-20T01:39:37.320Z,73.41
2022-12-20T01:42:40.034Z,73.46
2022-12-20T01:45:42.961Z,73.49
2022-12-20T01:48:53.954Z,73.58
2022-12-20T01:52:05.670Z,73.63
2022-12-20T01:55:26.465Z,73.79
2022-12-20T01:58:29.992Z,73.63
2022-12-20T02:01:32.999Z,73.69
2022-12-20T02:04:36.160Z,73.62
2022-12-20T02:07:39.237Z,73.75
2022-12-20T02:10:57.288Z,73.64
2022-12-20T02:14:21.173Z,73.55
2022-12-20T02:17:30.237Z,73.54
2022-12-20T02:21:00.883Z,73.53
2022-12-20T02:24:27.738Z,73.30
2022-12-20T02:27:49.086Z,73.06
2022-12-20T02:30:55.021Z,73.14
2022-12-20T02:33:59.612Z,73.14
2022-12-20T02:37:03.095Z,73.02
2022-12-20T02:40:06.658Z,72.95
2022-12-20T02:43:30.103Z,73.03
2022-12-20T02:46:35.833Z,73.04
2022-12-20T02:49:41.303Z,73.15
2022-12-20T02:52:44.737Z,73.35
2022-12-20T02:55:54.590Z,73.24
2022-12-20T02:59:09.194Z,73.20
2022-12-20T03:02:13.178Z,73.26
2022-12-20T03:05:16.720Z,73.06
2022-12-20T03:08:21.475Z,72.83
2022-12-20T03:11:24.138Z,72.84
2022-12-20T03:14:27.675Z,72.90
2022-12-20T03:17:30.616Z,72.93
2022-12-20T03:20:33.756Z,72.68
2022-12-20T03:23:36.232Z,72.77
2022-12-20T03:26:40.892Z,72.81
2022-12-20T03:29:45.963Z,72.68
2022-12-20T03:32:49.183Z,72.82
2022-12-20T03:35:51.711Z,72.91
2022-12-20T03:38:55.153Z,72.91
2022-12-20T03:41:58.551Z,72.96
2022-12-20T03:45:01.765Z,73.07
2022-12-20T03:48:04.881Z,72.84
2022-12-20T03:51:08.741Z,73.04
2022-12-20T03:54:11.336Z,73.09
2022-12-20T03:57:15.394Z,72.91
2022-12-20T04:00:18.559Z,72.65
2022-12-20T04:03:22.701Z,73.12
2022-12-20T04:06:25.211Z,73.22
2022-12-20T04:09:28.521Z,73.52
2022-12-20T04:12:31.976Z,73.50
2022-12-20T04:15:35.217Z,73.66
2022-12-20T04:18:38.181Z,73.66
2022-12-20T04:21:41.630Z,73.52
2022-12-20T04:24:44.280Z,73.60
2022-12-20T04:27:47.972Z,73.72
2022-12-20T04:30:50.446Z,73.87
2022-12-20T04:33:54.557Z,73.82
2022-12-20T04:36:57.108Z,73.98
2022-12-20T04:40:00.329Z,73.92
2022-12-20T04:43:02.970Z,73.83
2022-12-20T04:46:06.225Z,73.69
2022-12-20T04:49:09.002Z,73.66
2022-12-20T04:52:32.818Z,73.55
2022-12-20T04:55:41.022Z,72.95
2022-12-20T04:58:45.067Z,73.10
2022-12-20T05:01:47.643Z,73.20
2022-12-20T05:04:50.790Z,73.11
2022-12-20T05:07:53.889Z,73.27
2022-12-20T05:10:57.240Z,73.22
2022-12-20T05:14:00.105Z,73.34
2022-12-20T05:17:03.438Z,73.52
2022-12-20T05:20:07.827Z,73.57
2022-12-20T05:23:30.363Z,73.46
2022-12-20T05:26:37.721Z,73.29
2022-12-20T05:29:41.518Z,73.16
2022-12-20T05:32:44.984Z,73.26
2022-12-20T05:35:48.139Z,73.25
2022-12-20T05:38:51.343Z,73.30
2022-12-20T05:41:54.738Z,73.30
2022-12-20T05:44:57.941Z,73.35
2022-12-20T05:48:01.285Z,73.16
2022-12-20T05:51:04.652Z,73.51
2022-12-20T05:54:08.406Z,73.36
2022-12-20T05:57:14.726Z,73.64
2022-12-20T06:00:17.995Z,73.56
2022-12-20T06:03:23.883Z,73.46
2022-12-20T06:06:26.888Z,73.58
2022-12-20T06:09:30.269Z,73.64
2022-12-20T06:12:35.132Z,73.67
2022-12-20T06:15:38.537Z,73.45
2022-12-20T06:18:41.336Z,73.75
2022-12-20T06:21:44.907Z,73.23
2022-12-20T06:24:48.919Z,73.60
2022-12-20T06:27:52.191Z,73.83
2022-12-20T06:30:58.697Z,73.67
2022-12-20T06:34:02.078Z,73.59
2022-12-20T06:37:05.333Z,73.51
2022-12-20T06:40:10.981Z,73.48
2022-12-20T06:43:13.897Z,73.25
2022-12-20T06:46:16.996Z,73.34
2022-12-20T06:49:20.322Z,73.19
2022-12-20T06:52:24.231Z,72.96
2022-12-20T06:55:29.985Z,73.04
2022-12-20T06:58:33.066Z,72.87
2022-12-20T07:01:36.195Z,72.42
2022-12-20T07:04:39.230Z,72.29
2022-12-20T07:07:45.115Z,72.03
2022-12-20T07:10:48.592Z,71.86
2022-12-20T07:13:56.008Z,71.86
2022-12-20T07:16:58.828Z,71.70
2022-12-20T07:20:04.195Z,71.10
2022-12-20T07:23:09.133Z,70.98
2022-12-20T07:26:11.898Z,70.24
2022-12-20T07:29:15.838Z,70.14
2022-12-20T07:32:19.198Z,69.86
2022-12-20T07:35:22.149Z,69.87
2022-12-20T07:38:24.929Z,69.48
2022-12-20T07:41:28.190Z,69.28
2022-12-20T07:44:30.994Z,68.94
2022-12-20T07:47:35.926Z,68.11
2022-12-20T07:50:38.884Z,68.43
2022-12-20T07:53:48.600Z,67.94
2022-12-20T07:56:55.120Z,67.60
2022-12-20T08:00:01.193Z,67.02
2022-12-20T08:03:10.961Z,66.56
2022-12-20T08:06:15.502Z,65.51
2022-12-20T08:09:19.288Z,64.53
2022-12-20T08:12:23.093Z,64.50
2022-12-20T08:15:26.209Z,64.36
2022-12-20T08:18:29.452Z,64.56
2022-12-20T08:21:32.234Z,64.87
2022-12-20T08:24:35.103Z,64.94
2022-12-20T08:27:38.054Z,64.96
2022-12-20T08:30:40.822Z,65.08
2022-12-20T08:33:43.886Z,64.78
2022-12-20T08:36:46.710Z,64.92
2022-12-20T08:39:50.004Z,64.90
2022-12-20T08:42:52.874Z,63.31
2022-12-20T08:45:55.871Z,60.84
2022-12-20T08:48:58.700Z,57.42
2022-12-20T08:52:02.064Z,56.08
2022-12-20T08:55:05.711Z,54.41
2022-12-20T08:58:08.761Z,52.33
2022-12-20T09:01:18.385Z,50.97
2022-12-20T09:04:21.845Z,49.34
2022-12-20T09:07:24.521Z,48.01
2022-12-20T09:10:27.281Z,45.18
2022-12-20T09:13:30.068Z,43.13
2022-12-20T09:16:33.942Z,41.57
2022-12-20T09:19:36.748Z,40.96
2022-12-20T09:22:39.940Z,40.00
2022-12-20T09:25:42.785Z,39.42
2022-12-20T09:28:46.128Z,37.33
2022-12-20T09:31:49.807Z,37.48
2022-12-20T09:34:52.610Z,37.71
2022-12-20T09:37:55.539Z,36.82
2022-12-20T09:41:03.467Z,35.56
2022-12-20T09:44:18.962Z,35.50
2022-12-20T09:47:26.434Z,36.18
2022-12-20T09:50:39.894Z,36.65
2022-12-20T09:53:48.700Z,35.94
2022-12-20T09:57:09.708Z,35.55
2022-12-20T10:00:20.411Z,36.74
2022-12-20T10:03:29.321Z,37.48
2022-12-20T10:06:44.692Z,36.80
2022-12-20T10:10:02.711Z,35.09
2022-12-20T10:13:25.662Z,34.91
2022-12-20T10:16:39.090Z,33.54
2022-12-20T10:20:06.733Z,32.74
2022-12-20T10:23:33.543Z,31.68
2022-12-20T10:26:38.294Z,31.84
2022-12-20T10:29:41.599Z,32.48
2022-12-20T10:32:50.964Z,33.40
2022-12-20T10:35:53.939Z,33.67
2022-12-20T10:38:59.367Z,33.78
2022-12-20T10:42:02.317Z,33.79
2022-12-20T10:45:23.382Z,34.02
2022-12-20T10:48:30.762Z,34.47
2022-12-20T10:51:36.707Z,33.06
2022-12-20T10:54:47.084Z,32.69
2022-12-20T10:57:50.164Z,32.23
2022-12-20T11:01:09.417Z,34.16
2022-12-20T11:04:33.212Z,37.45
2022-12-20T11:07:37.519Z,39.93
2022-12-20T11:10:40.947Z,42.82
2022-12-20T11:13:45.305Z,44.21
2022-12-20T11:16:54.477Z,45.87
2022-12-20T11:20:05.361Z,45.85
2022-12-20T11:23:50.888Z,43.84
2022-12-20T11:27:15.693Z,41.96
2022-12-20T11:30:33.651Z,43.14
2022-12-20T11:33:36.426Z,44.25
2022-12-20T11:36:45.236Z,43.81
2022-12-20T11:40:16.391Z,43.72
2022-12-20T11:44:23.160Z,45.13
2022-12-20T11:47:17.138Z,45.39
2022-12-20T11:50:26.051Z,44.61
2022-12-20T11:53:45.241Z,42.38
2022-12-20T11:56:53.281Z,39.39
2022-12-20T12:00:00.228Z,36.98
2022-12-20T12:03:12.738Z,35.18
2022-12-20T12:06:27.239Z,34.48
2022-12-20T12:09:37.447Z,36.80
2022-12-20T12:12:50.730Z,36.42
2022-12-20T12:16:05.863Z,35.07
2022-12-20T12:19:13.364Z,34.16
2022-12-20T12:22:24.353Z,35.61
2022-12-20T12:25:27.329Z,38.38
2022-12-20T12:28:30.190Z,39.96
2022-12-20T12:31:44.494Z,40.96
2022-12-20T12:35:19.540Z,41.67
2022-12-20T12:38:47.027Z,43.32
2022-12-20T12:42:18.076Z,44.17
2022-12-20T12:45:29.189Z,45.92
2022-12-20T12:48:55.614Z,46.98
2022-12-20T12:52:05.353Z,48.17
2022-12-20T12:55:45.585Z,49.09
2022-12-20T12:59:07.123Z,49.76
2022-12-20T13:02:13.241Z,50.99
2022-12-20T13:05:25.910Z,51.51
2022-12-20T13:08:49.291Z,51.88
2022-12-20T13:12:00.485Z,52.71
2022-12-20T13:15:21.461Z,53.31
2022-12-20T13:18:25.747Z,53.99
2022-12-20T13:21:35.344Z,54.32
2022-12-20T13:24:38.267Z,54.61
2022-12-20T13:27:42.332Z,54.96
2022-12-20T13:31:09.971Z,55.09
2022-12-20T13:34:53.892Z,55.51
2022-12-20T13:38:06.088Z,55.73
2022-12-20T13:41:34.868Z,54.96
2022-12-20T13:44:45.216Z,55.63
2022-12-20T13:47:57.355Z,55.64
2022-12-20T13:51:02.458Z,56.15
2022-12-20T13:54:15.300Z,56.31
2022-12-20T13:57:27.004Z,56.43
2022-12-20T14:00:30.201Z,56.87
2022-12-20T14:03:40.346Z,57.21
2022-12-20T14:06:43.587Z,57.48
2022-12-20T14:09:47.550Z,57.35
2022-12-20T14:12:54.017Z,57.73
2022-12-20T14:16:17.796Z,57.37
2022-12-20T14:19:20.660Z,57.77
2022-12-20T14:22:23.729Z,57.98
2022-12-20T14:25:51.515Z,58.40
2022-12-20T14:28:59.262Z,58.14
2022-12-20T14:32:03.781Z,58.21
2022-12-20T14:35:18.089Z,58.42
2022-12-20T14:38:30.592Z,59.05
2022-12-20T14:41:38.954Z,59.84
2022-12-20T14:44:41.783Z,60.86
2022-12-20T14:47:59.311Z,61.43
2022-12-20T14:51:05.169Z,61.69
2022-12-20T14:54:47.824Z,62.11
2022-12-20T14:57:50.478Z,62.63
2022-12-20T15:01:17.650Z,63.19
2022-12-20T15:04:34.243Z,62.82
2022-12-20T15:07:41.725Z,63.03
2022-12-20T15:10:55.725Z,63.41
2022-12-20T15:13:59.272Z,63.79
2022-12-20T15:17:03.639Z,64.02
2022-12-20T15:20:11.957Z,63.91
2022-12-20T15:23:20.375Z,64.26
2022-12-20T15:26:26.060Z,64.91
2022-12-20T15:29:29.509Z,65.06
2022-12-20T15:32:32.670Z,65.18
2022-12-20T15:35:35.783Z,65.59
2022-12-20T15:39:10.838Z,65.73
2022-12-20T15:42:04.778Z,66.03
2022-12-20T15:45:13.122Z,66.17
2022-12-20T15:48:18.688Z,66.36
2022-12-20T15:51:31.928Z,66.55
2022-12-20T15:54:36.983Z,66.84
2022-12-20T15:57:40.052Z,66.83
2022-12-20T16:00:43.463Z,66.87
2022-12-20T16:03:46.931Z,66.87
2022-12-20T16:06:51.051Z,66.58
2022-12-20T16:09:54.227Z,67.30
2022-12-20T16:12:57.131Z,67.32
2022-12-20T16:16:00.429Z,67.51
2022-12-20T16:19:03.988Z,67.52
2022-12-20T16:22:14.094Z,67.31
2022-12-20T16:25:32.383Z,67.17
2022-12-20T16:28:35.227Z,66.97
2022-12-20T16:31:42.224Z,66.98
2022-12-20T16:34:45.705Z,67.26
2022-12-20T16:37:49.125Z,67.57
2022-12-20T16:40:52.024Z,67.86
2022-12-20T16:43:56.469Z,68.17
2022-12-20T16:46:59.427Z,68.56
2022-12-20T16:50:02.522Z,68.83
2022-12-20T16:53:05.617Z,68.79
2022-12-20T16:56:10.900Z,69.05
2022-12-20T16:59:19.800Z,69.11
2022-12-20T17:02:33.038Z,69.28
2022-12-20T17:05:37.325Z,69.31
2022-12-20T17:08:52.977Z,69.45
2022-12-20T17:11:55.853Z,69.58
2022-12-20T17:14:58.685Z,69.50
2022-12-20T17:18:01.532Z,70.05
2022-12-20T17:21:13.467Z,70.47
2022-12-20T17:24:21.647Z,70.47
2022-12-20T17:27:24.944Z,70.55
2022-12-20T17:30:27.795Z,70.53
2022-12-20T17:33:30.707Z,70.86
2022-12-20T17:36:38.093Z,71.09
2022-12-20T17:39:41.250Z,71.35
2022-12-20T17:42:44.166Z,71.23
2022-12-20T17:45:47.696Z,71.16
2022-12-20T17:48:50.811Z,71.40
2022-12-20T17:51:53.722Z,71.36
2022-12-20T17:54:56.577Z,71.57
2022-12-20T17:57:59.386Z,71.65
2022-12-20T18:01:02.515Z,71.60
2022-12-20T18:04:06.810Z,71.38
2022-12-20T18:07:09.373Z,71.44
2022-12-20T18:10:12.513Z,71.64
2022-12-20T18:13:15.078Z,71.91
2022-12-20T18:16:21.437Z,71.87
2022-12-20T18:19:24.714Z,72.08
2022-12-20T18:22:27.881Z,72.25
2022-12-20T18:25:30.631Z,72.22
2022-12-20T18:28:34.413Z,72.16
2022-12-20T18:31:37.171Z,72.33
2022-12-20T18:34:40.287Z,72.36
2022-12-20T18:37:42.935Z,72.37
2022-12-20T18:40:46.056Z,72.25
2022-12-20T18:43:50.170Z,72.29
2022-12-20T18:46:53.833Z,72.39
2022-12-20T18:49:56.479Z,72.54
2022-12-20T18:53:01.448Z,72.76
2022-12-20T18:56:14.326Z,72.69
2022-12-20T18:59:17.476Z,72.33
2022-12-20T19:02:20.157Z,72.44
2022-12-20T19:05:24.752Z,72.65
2022-12-20T19:08:29.172Z,72.70
2022-12-20T19:11:32.750Z,72.63
2022-12-20T19:14:35.300Z,72.46
2022-12-20T19:17:38.459Z,72.39
2022-12-20T19:20:41.539Z,72.22
2022-12-20T19:23:47.099Z,72.30
2022-12-20T19:26:49.684Z,72.06
2022-12-20T19:29:54.503Z,72.07
2022-12-20T19:32:57.045Z,72.12
2022-12-20T19:36:08.380Z,72.28
2022-12-20T19:39:23.199Z,72.04
2022-12-20T19:42:29.201Z,71.91
2022-12-20T19:45:32.085Z,72.10
2022-12-20T19:48:35.657Z,72.01
2022-12-20T19:51:38.081Z,71.97
2022-12-20T19:54:43.130Z,72.12
2022-12-20T19:57:45.700Z,72.08
2022-12-20T20:00:50.346Z,72.29
2022-12-20T20:03:54.609Z,72.30
2022-12-20T20:06:57.786Z,72.22
2022-12-20T20:10:02.044Z,72.18
2022-12-20T20:13:05.057Z,72.24
2022-12-20T20:16:10.181Z,72.35
2022-12-20T20:19:13.162Z,72.20
2022-12-20T20:22:22.547Z,72.24
2022-12-20T20:25:26.391Z,72.22
2022-12-20T20:28:33.080Z,72.04
2022-12-20T20:31:37.503Z,71.99
2022-12-20T20:34:40.469Z,71.87
2022-12-20T20:37:43.326Z,71.60
2022-12-20T20:40:46.172Z,71.73
2022-12-20T20:43:49.310Z,71.72
2022-12-20T20:46:52.237Z,71.77
2022-12-20T20:49:55.284Z,71.62
2022-12-20T20:52:58.186Z,71.76
2022-12-20T20:56:02.640Z,71.71
2022-12-20T20:59:09.272Z,71.78
2022-12-20T21:02:16.918Z,71.88
2022-12-20T21:08:42.699Z,71.96
2022-12-20T21:11:45.789Z,72.14
2022-12-20T21:15:20.784Z,72.09
2022-12-20T21:18:11.935Z,72.20
2022-12-20T21:21:14.762Z,72.20
2022-12-20T21:24:17.715Z,72.23
2022-12-20T21:27:20.501Z,72.40
2022-12-20T21:30:23.888Z,72.58
2022-12-20T21:33:28.809Z,72.33
2022-12-20T21:36:31.758Z,72.40
2022-12-20T21:39:35.070Z,72.38
2022-12-20T21:42:37.858Z,72.42
2022-12-20T21:45:40.729Z,72.43
2022-12-20T21:48:44.801Z,72.57
2022-12-20T21:51:47.908Z,72.56
2022-12-20T21:54:50.763Z,72.67
2022-12-20T21:57:53.585Z,72.61
2022-12-20T22:00:57.513Z,72.67
2022-12-20T22:04:03.135Z,72.54
2022-12-20T22:07:05.952Z,72.75
2022-12-20T22:10:09.480Z,72.84
2022-12-20T22:13:12.557Z,72.62
2022-12-20T22:16:18.964Z,72.74
2022-12-20T22:19:21.571Z,72.59
2022-12-20T22:22:25.588Z,72.69
2022-12-20T22:25:28.692Z,72.72
2022-12-20T22:28:32.206Z,72.75
2022-12-20T22:31:36.545Z,72.70
2022-12-20T22:34:39.861Z,72.60
2022-12-20T22:37:42.372Z,71.92
2022-12-20T22:40:45.482Z,72.36
2022-12-20T22:43:48.827Z,72.58
2022-12-20T22:46:51.925Z,72.46
2022-12-20T22:49:54.932Z,72.10
2022-12-20T22:52:58.425Z,72.15
2022-12-20T22:56:02.026Z,72.13
2022-12-20T22:59:05.143Z,72.14
2022-12-20T23:02:07.726Z,72.24
2022-12-20T23:05:10.976Z,72.01
2022-12-20T23:08:13.461Z,72.07
2022-12-20T23:11:38.042Z,72.09
2022-12-20T23:15:03.570Z,72.04
2022-12-20T23:18:07.313Z,71.95
2022-12-20T23:21:29.168Z,71.83
2022-12-20T23:24:32.282Z,71.85
2022-12-20T23:27:35.279Z,71.68
2022-12-20T23:30:38.240Z,71.58
2022-12-20T23:33:40.737Z,71.64
2022-12-20T23:36:44.016Z,71.62
2022-12-20T23:39:46.593Z,71.55
2022-12-20T23:42:52.734Z,71.43
2022-12-20T23:45:55.399Z,71.29
2022-12-20T23:48:58.643Z,71.28
2022-12-20T23:52:01.160Z,71.45
2022-12-20T23:55:04.693Z,71.23
2022-12-20T23:58:07.292Z,70.97
